Fountain Springs, PA

12:21 PM EST on December 05, 2019 (GMT -0500)
Shire in Lavelle | | Change Station

Elev 978 ft 40.76 °N, 76.39 °W | Updated 13 minutes ago

Overcast
Overcast
36.1 °F
Feels Like 32 °F
N
4.7
Wind Variable Wind from WNW
Gusts 0.0 mph

Today
High -- | Low -- °F
--% Chance of Precip.
Yesterday
High -- | Low -- °F
Precip. -- in
Pressure 29.91 in
Visibility 10.0 miles
Clouds Few 4800 ft
Mostly Cloudy 7000 ft
Windchill 32 °F
Dew Point 28 °F
Humidity 72%
Rainfall 0.03 in
Snow Depth Not available.
7:13 AM 4:37 PM
Waxing Gibbous, 63% visible
METAR KMUI 051556Z 27012G20KT 10SM FEW048 BKN070 05/M05 A2989 RMK AO2A SLP128 T00471054
Pressure 29.91 in
Visibility 10.0 miles
Clouds Few 4800 ft
Mostly Cloudy 7000 ft
Windchill 32 °F
Dew Point 28 °F
Humidity 72%
Rainfall 0.03 in
Snow Depth Not available.
7:13 AM 4:37 PM
Waxing Gibbous, 63% visible
METAR KMUI 051556Z 27012G20KT 10SM FEW048 BKN070 05/M05 A2989 RMK AO2A SLP128 T00471054

Get Severe Weather Alerts

Thanks for signing up!

Be on the lookout for a verification email in your inbox.

You'll start receiving the daily forecast at 6 AM.

×

10-Day Weather Forecast

Almanac

Astronomy

Dec. 05, 2019 Rise Set
Actual Time
Civil Twilight
Nautical Twilight
Astronomical Twilight
Moon
Length of Visible Light
Length of Day
Tomorrow will be .
, % of the Moon is Illuminated

Today's Extremes

State Highs State Lows

Community

WunderPhotos

Category 6

Welcome to Category 6. This is the collective home for Weather Underground's featured writeups by Dr. Jeff Masters (right), Bob Henson (left), Chris Burt, and other regular contributors.

Nearby

Air Quality

  Air Quality AQ Index Pollutant
Not available.

Snow Depth

Station Depth Elevation

Earthquake Activity

City Distance Mag. Time & Date
Minimum magnitude displayed is 2.5.

Coastal Water Temperatures

Place Temperature

Stations

Nearby Weather Stations

Station Location Temp. Windchill Dew Point Humidity Wind Precip. Elev Updated Type
                   

Watches & Warnings

There are currently no watches in effect.